Aviation Digital Data Service (ADDS)

Output produced by METARs form (0610 UTC 19 March 2019)
found at http://www.aviationweather.gov/metar/data/
 
Forecast for: KXNA (BENTONVILLE (NW), AR, US)
Text: KXNA 190520Z 1906/2006 VRB04KT P6SM BKN250
Forecast period: 0600 to 1500 UTC 19 March 2019
Forecast type: FROM: standard forecast or significant change
Winds: variable direction winds at 5 MPH (4 knots; 2.1 m/s)
Visibility: 6 or more miles 10+ km)
Ceiling: 25000 feet AGL
Clouds: broken clouds at 25000 feet AGL
Weather: no significant weather forecast for this period
Text: FM191500 18012KT P6SM BKN250
Forecast period: 1500 UTC 19 March 2019 to 0000 UTC 20 March 2019
Forecast type: FROM: standard forecast or significant change
Winds: from the S (180 degrees) at 14 MPH (12 knots; 6.2 m/s)
Visibility: 6 or more miles 10+ km)
Ceiling: 25000 feet AGL
Clouds: broken clouds at 25000 feet AGL
Weather: no significant weather forecast for this period
Text: FM200000 17005KT P6SM BKN120
Forecast period: 0000 to 0600 UTC 20 March 2019
Forecast type: FROM: standard forecast or significant change
Winds: from the S (170 degrees) at 6 MPH (5 knots; 2.6 m/s)
Visibility: 6 or more miles 10+ km)
Ceiling: 12000 feet AGL
Clouds: broken clouds at 12000 feet AGL
Weather: no significant weather forecast for this period